Tapps Island, Washington
Current Conditions -  °F | °C
As of 11:26 PM on Wednesday 22 Oct 2014 (Local Time) from KTCM Reporting Station
Broken Clouds Broken Clouds  
Wind Chill: 54°   Ceiling: 9500
Heat Index: 54°   Visibility: 10mi
Dew Point: 50°   Wind: 15mph
Humidity: 88%   Direction: 180°S
Pressure: 29.71"   Gusts: NA
Location:  47.1874°N, 122.164°W
Report Text: KTCM 230626Z AUTO 18013KT 10SM BKN095 BKN140 BKN180 12/10 A2971 RMK AO2
Loading
Personal Weather Stations






























Interactive Weather Map
Tropical Storm Tracking
New forecast layout! Learn more

10-Day Weather Forecast

Advertisements
Track Severe Weather on mobile